createdAt,value
2023-05-02T00:04:02.106Z,7.10
2023-05-02T00:14:08.726Z,7.20
2023-05-02T00:24:12.374Z,7.60
2023-05-02T00:34:16.096Z,7.30
2023-05-02T00:44:19.632Z,7.40
2023-05-02T00:54:44.567Z,7.40
2023-05-02T01:04:57.142Z,7.70
2023-05-02T01:16:03.593Z,7.60
2023-05-02T01:26:50.039Z,7.60
2023-05-02T01:36:58.097Z,7.60
2023-05-02T01:48:05.193Z,7.60
2023-05-02T01:58:12.342Z,7.50
2023-05-02T02:08:16.287Z,7.70
2023-05-02T02:18:26.735Z,7.40
2023-05-02T02:28:31.104Z,7.70
2023-05-02T02:38:49.125Z,7.40
2023-05-02T02:49:12.862Z,7.60
2023-05-02T02:59:29.099Z,7.10
2023-05-02T03:10:28.188Z,7.00
2023-05-02T03:20:31.921Z,7.60
2023-05-02T03:30:40.934Z,7.70
2023-05-02T03:40:45.004Z,7.50
2023-05-02T03:50:53.199Z,7.70
2023-05-02T04:00:57.186Z,12.70
2023-05-02T04:11:04.721Z,10.00
2023-05-02T04:21:11.739Z,7.90
2023-05-02T04:31:36.288Z,8.00
2023-05-02T04:42:19.949Z,8.00
2023-05-02T04:52:44.789Z,7.10
2023-05-02T05:02:48.752Z,7.50
2023-05-02T05:12:53.784Z,8.00
2023-05-02T05:23:59.325Z,8.50
2023-05-02T05:34:05.696Z,7.70
2023-05-02T05:44:11.754Z,7.30
2023-05-02T05:54:18.724Z,8.30
2023-05-02T06:04:22.624Z,7.20
2023-05-02T06:14:28.802Z,7.30
2023-05-02T06:24:32.790Z,7.30
2023-05-02T06:34:46.135Z,7.90
2023-05-02T06:44:51.796Z,7.20
2023-05-02T06:54:57.232Z,7.70
2023-05-02T07:05:03.024Z,6.80
2023-05-02T07:15:08.974Z,7.10
2023-05-02T07:25:12.557Z,7.50
2023-05-02T07:35:16.434Z,7.30
2023-05-02T07:45:24.855Z,7.00
2023-05-02T07:55:28.969Z,7.20
2023-05-02T08:05:32.900Z,7.40
2023-05-02T08:15:39.258Z,7.10
2023-05-02T08:25:42.898Z,7.40
2023-05-02T08:35:46.568Z,6.80
2023-05-02T08:45:52.956Z,6.80
2023-05-02T08:56:16.870Z,6.90
2023-05-02T09:06:41.331Z,8.50
2023-05-02T09:16:45.316Z,6.30
2023-05-02T09:27:32.756Z,9.00
2023-05-02T09:37:36.789Z,5.40
2023-05-02T09:47:41.685Z,6.20
2023-05-02T09:57:45.452Z,6.00
2023-05-02T10:07:49.608Z,7.10
2023-05-02T10:17:57.089Z,8.80
2023-05-02T10:28:01.118Z,6.50
2023-05-02T10:38:06.956Z,6.70
2023-05-02T10:48:57.499Z,8.00
2023-05-02T10:59:30.292Z,8.60
2023-05-02T11:10:24.856Z,8.00
2023-05-02T11:20:31.843Z,7.20
2023-05-02T11:30:58.849Z,7.20
2023-05-02T11:41:04.574Z,7.20
2023-05-02T11:51:08.602Z,6.20
2023-05-02T12:01:17.398Z,6.10
2023-05-02T12:11:21.901Z,5.40
2023-05-02T12:21:35.968Z,5.10
2023-05-02T12:31:40.494Z,4.80
2023-05-02T12:42:12.119Z,4.70
2023-05-02T12:52:15.819Z,4.60
2023-05-02T13:02:19.533Z,4.50
2023-05-02T13:12:25.161Z,4.60
2023-05-02T13:22:29.867Z,4.60
2023-05-02T13:32:33.648Z,4.70
2023-05-02T13:42:37.490Z,4.70
2023-05-02T13:52:41.866Z,5.30
2023-05-02T14:02:48.696Z,6.50
2023-05-02T14:13:12.223Z,7.30
2023-05-02T14:23:36.229Z,7.60
2023-05-02T14:33:39.958Z,6.70
2023-05-02T14:43:43.555Z,6.60
2023-05-02T14:53:50.932Z,6.00
2023-05-02T15:14:03.159Z,4.70
2023-05-02T15:24:07.785Z,3.80
2023-05-02T15:34:11.902Z,3.60
2023-05-02T15:44:15.828Z,3.30
2023-05-02T15:54:41.323Z,3.10
2023-05-02T16:04:45.352Z,3.10
2023-05-02T16:14:49.107Z,3.00
2023-05-02T16:24:52.907Z,3.10
2023-05-02T16:34:56.785Z,2.80
2023-05-02T16:45:02.801Z,2.70
2023-05-02T16:55:06.868Z,2.50
2023-05-02T17:05:11.480Z,2.40
2023-05-02T17:15:16.329Z,2.50
2023-05-02T17:25:20.929Z,2.20
2023-05-02T17:35:24.833Z,2.30
2023-05-02T17:45:31.419Z,1.90
2023-05-02T17:55:39.194Z,2.10
2023-05-02T18:05:44.943Z,2.00
2023-05-02T18:15:59.963Z,2.10
2023-05-02T18:26:04.357Z,1.60
2023-05-02T18:36:10.294Z,1.40
2023-05-02T18:46:14.114Z,2.00
2023-05-02T18:56:21.728Z,1.50
2023-05-02T19:06:26.408Z,1.50
2023-05-02T19:16:31.784Z,1.40
2023-05-02T19:26:56.119Z,1.20
2023-05-02T19:36:59.780Z,3.00
2023-05-02T19:47:04.129Z,2.70
2023-05-02T19:57:09.324Z,4.50
2023-05-02T20:07:13.182Z,4.60
2023-05-02T20:17:18.448Z,3.00
2023-05-02T20:28:04.373Z,2.00
2023-05-02T20:38:12.275Z,2.40
2023-05-02T20:48:18.515Z,3.10
2023-05-02T20:58:25.006Z,3.80
2023-05-02T21:08:28.696Z,3.90
2023-05-02T21:18:42.031Z,3.80
2023-05-02T21:29:26.194Z,3.70
2023-05-02T21:40:12.509Z,3.50
2023-05-02T21:50:17.995Z,3.20
2023-05-02T22:00:21.815Z,3.40
2023-05-02T22:10:25.649Z,3.20
2023-05-02T22:20:29.323Z,3.40
2023-05-02T22:30:35.139Z,3.00
2023-05-02T22:41:38.860Z,2.90
2023-05-02T22:51:47.130Z,2.90
2023-05-02T23:01:51.076Z,3.40
2023-05-02T23:11:59.826Z,5.30
2023-05-02T23:22:03.685Z,12.90
2023-05-02T23:33:08.159Z,3.60
2023-05-02T23:44:12.596Z,4.00
2023-05-02T23:54:38.362Z,4.20
